sensor_id;sensor_type;location;lat;lon;timestamp;pressure;altitude;pressure_sealevel;temperature;humidity
51315;BME280;65787;59.922;10.742;2023-03-01T21:44:28;102309.25;;;25.36;24.86
51315;BME280;65787;59.922;10.742;2023-03-01T21:46:54;102335.88;;;26.15;24.40
51315;BME280;65787;59.922;10.742;2023-03-01T21:49:20;102341.97;;;26.56;23.76
51315;BME280;65787;59.922;10.742;2023-03-01T21:51:46;102331.22;;;26.77;23.64
51315;BME280;65787;59.922;10.742;2023-03-01T21:54:12;102339.47;;;26.99;23.21
51315;BME280;65787;59.922;10.742;2023-03-01T21:56:38;102337.94;;;27.13;22.77
51315;BME280;65787;59.922;10.742;2023-03-01T21:59:10;102347.16;;;27.24;22.72
51315;BME280;65787;59.922;10.742;2023-03-01T22:01:37;102334.91;;;27.37;22.59
51315;BME280;65787;59.922;10.742;2023-03-01T22:04:02;102327.44;;;27.37;22.81
51315;BME280;65787;59.922;10.742;2023-03-01T22:06:40;102334.34;;;27.67;22.30
51315;BME280;65787;59.922;10.742;2023-03-01T22:09:17;102336.53;;;27.65;22.31
51315;BME280;65787;59.922;10.742;2023-03-01T22:11:49;102317.19;;;27.60;22.29
51315;BME280;65787;59.922;10.742;2023-03-01T22:14:17;102344.66;;;27.82;22.05
51315;BME280;65787;59.922;10.742;2023-03-01T22:16:43;102346.91;;;27.85;22.00
51315;BME280;65787;59.922;10.742;2023-03-01T22:19:11;102334.25;;;27.89;21.89
51315;BME280;65787;59.922;10.742;2023-03-01T22:21:38;102342.53;;;27.89;21.93
51315;BME280;65787;59.922;10.742;2023-03-01T22:24:04;102349.81;;;28.00;22.22
51315;BME280;65787;59.922;10.742;2023-03-01T22:26:35;102336.00;;;28.00;21.85
51315;BME280;65787;59.922;10.742;2023-03-01T22:29:05;102354.25;;;28.02;21.67
51315;BME280;65787;59.922;10.742;2023-03-01T22:31:31;102355.38;;;28.06;21.74
51315;BME280;65787;59.922;10.742;2023-03-01T22:33:57;102347.91;;;28.01;21.88
51315;BME280;65787;59.922;10.742;2023-03-01T22:36:23;102334.09;;;28.06;21.39
51315;BME280;65787;59.922;10.742;2023-03-01T22:38:49;102349.31;;;28.09;21.83
51315;BME280;65787;59.922;10.742;2023-03-01T22:41:20;102331.31;;;28.01;21.63
51315;BME280;65787;59.922;10.742;2023-03-01T22:43:45;102347.19;;;28.21;21.22
51315;BME280;65787;59.922;10.742;2023-03-01T22:46:16;102334.97;;;28.12;21.20
51315;BME280;65787;59.922;10.742;2023-03-01T22:48:42;102305.31;;;27.97;21.18
51315;BME280;65787;59.922;10.742;2023-03-01T22:51:22;102343.31;;;28.22;21.50
51315;BME280;65787;59.922;10.742;2023-03-01T22:53:48;102336.47;;;28.30;21.16
51315;BME280;65787;59.922;10.742;2023-03-01T22:56:16;102344.53;;;28.36;20.96
51315;BME280;65787;59.922;10.742;2023-03-01T22:58:42;102344.53;;;28.42;20.82
51315;BME280;65787;59.922;10.742;2023-03-01T23:01:14;102326.53;;;28.29;20.74
51315;BME280;65787;59.922;10.742;2023-03-01T23:03:41;102341.50;;;28.38;20.89
51315;BME280;65787;59.922;10.742;2023-03-01T23:06:08;102345.91;;;28.39;20.81
51315;BME280;65787;59.922;10.742;2023-03-01T23:08:34;102338.44;;;28.39;20.79
51315;BME280;65787;59.922;10.742;2023-03-01T23:10:59;102348.63;;;28.34;21.00
51315;BME280;65787;59.922;10.742;2023-03-01T23:13:25;102346.72;;;28.39;20.56
51315;BME280;65787;59.922;10.742;2023-03-01T23:15:57;102340.13;;;28.41;20.50
51315;BME280;65787;59.922;10.742;2023-03-01T23:18:22;102332.91;;;28.39;20.58
51315;BME280;65787;59.922;10.742;2023-03-01T23:20:48;102331.25;;;28.38;20.66
51315;BME280;65787;59.922;10.742;2023-03-01T23:23:14;102340.38;;;28.39;20.79
51315;BME280;65787;59.922;10.742;2023-03-01T23:25:39;102346.72;;;28.34;20.35
51315;BME280;65787;59.922;10.742;2023-03-01T23:28:06;102339.28;;;28.45;20.35
51315;BME280;65787;59.922;10.742;2023-03-01T23:30:32;102324.31;;;28.31;20.24
51315;BME280;65787;59.922;10.742;2023-03-01T23:32:57;102330.47;;;28.48;20.42
51315;BME280;65787;59.922;10.742;2023-03-01T23:35:25;102332.38;;;28.43;20.54
51315;BME280;65787;59.922;10.742;2023-03-01T23:37:51;102327.13;;;28.41;20.09
51315;BME280;65787;59.922;10.742;2023-03-01T23:40:16;102337.72;;;28.54;20.18
51315;BME280;65787;59.922;10.742;2023-03-01T23:42:42;102327.09;;;28.36;20.19
51315;BME280;65787;59.922;10.742;2023-03-01T23:45:08;102321.44;;;28.15;20.59
51315;BME280;65787;59.922;10.742;2023-03-01T23:47:34;102327.75;;;28.06;20.33
51315;BME280;65787;59.922;10.742;2023-03-01T23:50:00;102323.88;;;28.02;20.28
51315;BME280;65787;59.922;10.742;2023-03-01T23:52:25;102328.47;;;27.91;20.51
51315;BME280;65787;59.922;10.742;2023-03-01T23:54:51;102338.69;;;27.90;20.50
51315;BME280;65787;59.922;10.742;2023-03-01T23:57:17;102340.88;;;27.88;20.50
51315;BME280;65787;59.922;10.742;2023-03-01T23:59:42;102322.00;;;27.75;20.60
